createdAt,value
2023-06-19T00:00:27.161Z,79.64
2023-06-19T00:01:27.289Z,80.15
2023-06-19T00:02:27.480Z,79.85
2023-06-19T00:03:27.532Z,79.74
2023-06-19T00:04:27.930Z,79.85
2023-06-19T00:05:27.681Z,79.85
2023-06-19T00:06:27.767Z,80.05
2023-06-19T00:07:27.854Z,79.94
2023-06-19T00:08:27.945Z,80.15
2023-06-19T00:09:28.013Z,80.08
2023-06-19T00:10:28.210Z,80.49
2023-06-19T00:11:28.269Z,80.58
2023-06-19T00:12:28.364Z,80.39
2023-06-19T00:13:28.442Z,80.29
2023-06-19T00:14:28.657Z,80.29
2023-06-19T00:15:28.630Z,80.49
2023-06-19T00:16:28.703Z,80.19
2023-06-19T00:17:28.803Z,80.49
2023-06-19T00:18:28.887Z,80.39
2023-06-19T00:19:28.970Z,80.49
2023-06-19T00:20:29.054Z,80.58
2023-06-19T00:21:29.149Z,80.69
2023-06-19T00:22:29.231Z,80.69
2023-06-19T00:23:29.298Z,80.49
2023-06-19T00:24:29.373Z,80.69
2023-06-19T00:25:29.436Z,80.49
2023-06-19T00:26:29.505Z,80.19
2023-06-19T00:27:29.609Z,80.15
2023-06-19T00:28:29.716Z,79.85
2023-06-19T00:29:29.764Z,79.85
2023-06-19T00:30:29.863Z,79.74
2023-06-19T00:31:29.929Z,80.25
2023-06-19T00:32:30.235Z,79.74
2023-06-19T00:33:30.230Z,79.85
2023-06-19T00:34:30.328Z,79.54
2023-06-19T00:35:30.415Z,79.44
2023-06-19T00:36:30.495Z,79.85
2023-06-19T00:37:30.589Z,79.74
2023-06-19T00:38:30.687Z,79.54
2023-06-19T00:39:30.772Z,79.74
2023-06-19T00:40:30.880Z,79.64
2023-06-19T00:41:30.980Z,79.35
2023-06-19T00:42:31.087Z,79.35
2023-06-19T00:43:31.158Z,79.94
2023-06-19T00:44:31.273Z,79.74
2023-06-19T00:45:31.372Z,79.74
2023-06-19T00:46:31.461Z,79.35
2023-06-19T00:47:31.533Z,79.54
2023-06-19T00:48:31.619Z,79.74
2023-06-19T00:49:31.691Z,79.85
2023-06-19T00:50:31.797Z,79.94
2023-06-19T00:51:31.865Z,79.94
2023-06-19T00:52:31.982Z,79.85
2023-06-19T00:53:32.032Z,79.94
2023-06-19T00:54:32.120Z,79.85
2023-06-19T00:55:32.221Z,79.94
2023-06-19T00:56:32.307Z,79.94
2023-06-19T00:57:32.392Z,80.19
2023-06-19T00:58:33.101Z,80.19
2023-06-19T00:59:32.657Z,80.49
2023-06-19T01:00:32.761Z,80.19
2023-06-19T01:01:32.876Z,79.99
2023-06-19T01:02:33.054Z,80.15
2023-06-19T01:03:33.103Z,79.99
2023-06-19T01:04:33.113Z,80.15
2023-06-19T01:05:33.165Z,80.05
2023-06-19T01:06:33.252Z,80.25
2023-06-19T01:07:33.329Z,80.35
2023-06-19T01:08:33.413Z,80.55
2023-06-19T01:09:33.498Z,80.39
2023-06-19T01:10:33.606Z,80.39
2023-06-19T01:11:33.685Z,80.79
2023-06-19T01:12:33.762Z,81.09
2023-06-19T01:13:33.881Z,80.58
2023-06-19T01:14:33.976Z,80.58
2023-06-19T01:15:34.055Z,80.49
2023-06-19T01:16:34.202Z,80.89
2023-06-19T01:17:34.443Z,80.93
2023-06-19T01:18:34.393Z,81.43
2023-06-19T01:19:34.495Z,81.33
2023-06-19T01:20:34.616Z,81.23
2023-06-19T01:21:34.704Z,81.03
2023-06-19T01:22:34.790Z,81.03
2023-06-19T01:23:34.862Z,81.43
2023-06-19T01:24:35.094Z,81.33
2023-06-19T01:25:35.072Z,81.63
2023-06-19T01:26:35.157Z,81.13
2023-06-19T01:27:35.244Z,81.53
2023-06-19T01:28:35.326Z,81.53
2023-06-19T01:29:35.415Z,81.73
2023-06-19T01:30:35.545Z,81.43
2023-06-19T01:31:35.651Z,81.43
2023-06-19T01:32:35.785Z,81.63
2023-06-19T01:33:35.800Z,81.73
2023-06-19T01:34:37.945Z,81.84
2023-06-19T01:35:36.030Z,81.73
2023-06-19T01:36:36.218Z,81.73
2023-06-19T01:37:36.338Z,82.04
2023-06-19T01:38:36.403Z,81.93
2023-06-19T01:39:36.481Z,81.93
2023-06-19T01:40:36.566Z,81.98
2023-06-19T01:41:36.625Z,82.07
2023-06-19T01:42:36.730Z,82.18
2023-06-19T01:43:36.794Z,82.18
2023-06-19T01:44:36.884Z,82.28
2023-06-19T01:45:36.964Z,82.48
2023-06-19T01:46:37.081Z,82.28
2023-06-19T01:47:37.130Z,82.18
2023-06-19T01:48:37.211Z,82.38
2023-06-19T01:49:37.280Z,82.38
2023-06-19T01:50:37.481Z,82.28
2023-06-19T01:51:45.090Z,82.38
2023-06-19T01:52:37.720Z,82.48
2023-06-19T01:53:37.857Z,82.28
2023-06-19T01:54:37.963Z,82.58
2023-06-19T01:55:38.083Z,82.18
2023-06-19T01:56:38.142Z,82.28
2023-06-19T01:57:38.246Z,82.18
2023-06-19T01:58:38.347Z,82.18
2023-06-19T01:59:38.444Z,82.28
2023-06-19T02:00:39.131Z,82.28
2023-06-19T02:01:38.659Z,81.98
2023-06-19T02:02:39.033Z,82.07
2023-06-19T02:03:38.914Z,81.93
2023-06-19T02:04:39.006Z,81.93
2023-06-19T02:05:39.105Z,81.93
2023-06-19T02:06:39.162Z,81.84
2023-06-19T02:07:39.266Z,81.84
2023-06-19T02:08:39.349Z,81.73
2023-06-19T02:09:39.435Z,81.93
2023-06-19T02:10:39.550Z,82.14
2023-06-19T02:11:39.644Z,82.34
2023-06-19T02:12:39.736Z,82.34
2023-06-19T02:13:40.526Z,82.07
2023-06-19T02:14:39.872Z,82.38
2023-06-19T02:15:40.004Z,81.98
2023-06-19T02:16:40.114Z,82.28
2023-06-19T02:17:40.234Z,82.07
2023-06-19T02:18:40.278Z,82.38
2023-06-19T02:19:40.367Z,82.38
2023-06-19T02:20:40.453Z,82.48
2023-06-19T02:21:40.526Z,82.38
2023-06-19T02:22:40.604Z,82.68
2023-06-19T02:23:40.681Z,82.68
2023-06-19T02:24:41.032Z,82.88
2023-06-19T02:25:40.838Z,82.92
2023-06-19T02:26:40.946Z,83.32
2023-06-19T02:27:41.041Z,83.22
2023-06-19T02:28:41.124Z,83.32
2023-06-19T02:29:41.234Z,83.52
2023-06-19T02:30:41.317Z,83.52
2023-06-19T02:31:41.460Z,83.62
2023-06-19T02:32:41.600Z,83.52
2023-06-19T02:33:41.700Z,83.72
2023-06-19T02:34:41.803Z,83.62
2023-06-19T02:35:41.914Z,83.72
2023-06-19T02:36:42.007Z,83.62
2023-06-19T02:37:42.104Z,83.52
2023-06-19T02:38:42.198Z,83.22
2023-06-19T02:39:42.305Z,83.32
2023-06-19T02:40:42.424Z,83.12
2023-06-19T02:41:42.530Z,83.12
2023-06-19T02:42:42.630Z,82.71
2023-06-19T02:43:42.717Z,82.92
2023-06-19T02:44:42.785Z,82.82
2023-06-19T02:45:42.935Z,83.22
2023-06-19T02:46:43.007Z,83.22
2023-06-19T02:47:43.191Z,83.22
2023-06-19T02:48:43.149Z,83.02
2023-06-19T02:49:43.265Z,83.42
2023-06-19T02:50:44.342Z,83.32
2023-06-19T02:51:43.476Z,83.02
2023-06-19T02:52:43.546Z,82.92
2023-06-19T02:53:43.648Z,83.12
2023-06-19T02:54:43.741Z,83.22
2023-06-19T02:55:43.848Z,83.22
2023-06-19T02:56:43.934Z,83.12
2023-06-19T02:57:44.063Z,83.02
2023-06-19T02:58:44.159Z,83.02
2023-06-19T02:59:44.260Z,83.02
2023-06-19T03:00:44.352Z,83.12
2023-06-19T03:01:44.548Z,82.92
2023-06-19T03:02:44.697Z,82.92
2023-06-19T03:03:44.702Z,82.82
2023-06-19T03:04:44.758Z,82.62
2023-06-19T03:05:44.908Z,82.62
2023-06-19T03:06:45.047Z,82.62
2023-06-19T03:07:45.158Z,82.51
2023-06-19T03:08:45.276Z,82.82
2023-06-19T03:09:45.385Z,82.51
2023-06-19T03:10:45.459Z,82.42
2023-06-19T03:11:45.555Z,82.31
2023-06-19T03:12:45.646Z,82.21
2023-06-19T03:13:45.740Z,82.21
2023-06-19T03:14:45.822Z,82.42
2023-06-19T03:15:45.942Z,82.01
2023-06-19T03:16:46.062Z,82.11
2023-06-19T03:17:46.161Z,82.11
2023-06-19T03:18:46.397Z,81.77
2023-06-19T03:19:46.329Z,81.77
2023-06-19T03:20:46.423Z,81.67
2023-06-19T03:21:46.506Z,81.77
2023-06-19T03:22:46.633Z,81.27
2023-06-19T03:23:46.755Z,80.97
2023-06-19T03:24:46.884Z,80.97
2023-06-19T03:25:46.960Z,81.07
2023-06-19T03:26:47.028Z,81.07
2023-06-19T03:27:47.126Z,80.93
2023-06-19T03:28:47.196Z,80.73
2023-06-19T03:29:47.329Z,80.52
2023-06-19T03:30:47.375Z,80.83
2023-06-19T03:31:47.499Z,80.63
2023-06-19T03:32:47.615Z,80.83
2023-06-19T03:33:47.667Z,80.52
2023-06-19T03:34:47.749Z,80.32
2023-06-19T03:35:47.822Z,80.32
2023-06-19T03:36:47.931Z,80.32
2023-06-19T03:37:48.005Z,80.22
2023-06-19T03:38:48.127Z,80.12
2023-06-19T03:39:48.224Z,80.22
2023-06-19T03:40:48.306Z,80.02
2023-06-19T03:41:48.437Z,80.02
2023-06-19T03:42:48.541Z,79.79
2023-06-19T03:43:48.629Z,79.99
2023-06-19T03:44:48.715Z,79.58
2023-06-19T03:45:48.831Z,79.68
2023-06-19T03:46:48.958Z,79.79
2023-06-19T03:47:49.090Z,79.48
2023-06-19T03:48:49.140Z,79.48
2023-06-19T03:49:49.219Z,79.48
2023-06-19T03:50:49.298Z,79.08
2023-06-19T03:51:49.365Z,79.18
2023-06-19T03:52:49.462Z,79.18
2023-06-19T03:53:49.550Z,79.28
2023-06-19T03:54:49.601Z,79.08
2023-06-19T03:55:49.702Z,79.08
2023-06-19T03:56:49.783Z,79.18
2023-06-19T03:57:49.902Z,79.18
2023-06-19T03:58:49.996Z,78.88
2023-06-19T03:59:50.053Z,78.88
2023-06-19T04:00:50.139Z,78.88
2023-06-19T04:01:51.384Z,79.08
2023-06-19T04:02:50.575Z,78.74
2023-06-19T04:03:50.482Z,78.94
2023-06-19T04:04:50.558Z,78.74
2023-06-19T04:05:51.286Z,78.74
2023-06-19T04:06:50.775Z,78.64
2023-06-19T04:07:50.908Z,78.64
2023-06-19T04:08:50.999Z,78.78
2023-06-19T04:09:51.079Z,79.14
2023-06-19T04:10:51.148Z,78.64
2023-06-19T04:11:52.180Z,78.74
2023-06-19T04:12:51.370Z,78.94
2023-06-19T04:13:51.458Z,78.74
2023-06-19T04:14:51.559Z,78.74
2023-06-19T04:15:51.742Z,78.74
2023-06-19T04:16:51.771Z,78.74
2023-06-19T04:17:51.898Z,78.64
2023-06-19T04:18:51.977Z,78.44
2023-06-19T04:19:52.062Z,77.83
2023-06-19T04:20:52.151Z,77.83
2023-06-19T04:21:52.245Z,77.83
2023-06-19T04:22:52.329Z,77.73
2023-06-19T04:23:52.477Z,77.94
2023-06-19T04:24:52.548Z,77.90
2023-06-19T04:25:52.645Z,77.90
2023-06-19T04:26:52.731Z,78.90
2023-06-19T04:27:52.835Z,78.40
2023-06-19T04:28:52.956Z,77.59
2023-06-19T04:29:53.031Z,78.10
2023-06-19T04:30:53.105Z,78.40
2023-06-19T04:31:53.274Z,77.70
2023-06-19T04:32:53.423Z,77.50
2023-06-19T04:33:53.491Z,78.10
2023-06-19T04:34:53.603Z,78.10
2023-06-19T04:35:53.660Z,78.30
2023-06-19T04:36:53.751Z,78.00
2023-06-19T04:37:53.881Z,78.40
2023-06-19T04:38:53.953Z,77.70
2023-06-19T04:39:54.029Z,77.50
2023-06-19T04:40:54.092Z,77.50
2023-06-19T04:41:54.269Z,77.50
2023-06-19T04:42:54.477Z,77.50
2023-06-19T04:43:54.451Z,77.09
2023-06-19T04:44:54.548Z,77.00
2023-06-19T04:45:54.734Z,77.09
2023-06-19T04:46:54.764Z,77.20
2023-06-19T04:47:54.880Z,76.89
2023-06-19T04:48:54.988Z,77.29
2023-06-19T04:49:55.068Z,77.00
2023-06-19T04:50:55.139Z,76.79
2023-06-19T04:51:55.223Z,77.39
2023-06-19T04:52:55.314Z,76.89
2023-06-19T04:53:55.521Z,77.09
2023-06-19T04:54:56.174Z,76.79
2023-06-19T04:55:55.648Z,76.79
2023-06-19T04:56:55.690Z,76.79
2023-06-19T04:57:55.794Z,76.89
2023-06-19T04:58:55.871Z,77.09
2023-06-19T04:59:56.540Z,77.09
2023-06-19T05:00:56.187Z,76.79
2023-06-19T05:01:56.300Z,77.00
2023-06-19T05:02:56.438Z,76.69
2023-06-19T05:03:56.541Z,76.49
2023-06-19T05:04:56.569Z,76.79
2023-06-19T05:05:56.692Z,76.89
2023-06-19T05:06:56.722Z,77.36
2023-06-19T05:07:56.819Z,76.76
2023-06-19T05:08:56.897Z,76.86
2023-06-19T05:09:56.987Z,76.35
2023-06-19T05:10:57.179Z,76.45
2023-06-19T05:11:57.291Z,76.65
2023-06-19T05:12:57.455Z,76.05
2023-06-19T05:13:57.499Z,76.25
2023-06-19T05:14:57.580Z,76.05
2023-06-19T05:15:57.721Z,76.15
2023-06-19T05:16:57.827Z,75.95
2023-06-19T05:17:58.021Z,76.25
2023-06-19T05:18:57.987Z,76.35
2023-06-19T05:19:58.086Z,75.85
2023-06-19T05:20:58.164Z,75.85
2023-06-19T05:21:58.220Z,75.95
2023-06-19T05:22:58.364Z,76.35
2023-06-19T05:23:58.494Z,76.76
2023-06-19T05:24:58.570Z,76.35
2023-06-19T05:25:58.739Z,76.15
2023-06-19T05:26:58.777Z,76.45
2023-06-19T05:27:58.863Z,75.95
2023-06-19T05:28:58.961Z,75.85
2023-06-19T05:29:59.022Z,76.32
2023-06-19T05:30:59.213Z,75.71
2023-06-19T05:31:59.272Z,75.62
2023-06-19T05:32:59.421Z,76.12
2023-06-19T05:33:59.492Z,75.71
2023-06-19T05:34:59.654Z,75.71
2023-06-19T05:35:59.711Z,75.92
2023-06-19T05:36:59.792Z,75.82
2023-06-19T05:37:59.916Z,75.71
2023-06-19T05:39:00.031Z,75.62
2023-06-19T05:40:00.146Z,75.58
2023-06-19T05:41:00.224Z,75.18
2023-06-19T05:42:00.284Z,75.27
2023-06-19T05:43:00.484Z,75.38
2023-06-19T05:44:00.608Z,75.38
2023-06-19T05:45:00.632Z,75.18
2023-06-19T05:46:00.778Z,75.38
2023-06-19T05:47:00.878Z,75.48
2023-06-19T05:48:01.082Z,74.98
2023-06-19T05:49:01.030Z,75.08
2023-06-19T05:50:01.126Z,74.48
2023-06-19T05:51:01.187Z,75.34
2023-06-19T05:52:01.257Z,74.74
2023-06-19T05:53:01.344Z,74.34
2023-06-19T05:54:01.478Z,74.74
2023-06-19T05:55:01.535Z,74.60
2023-06-19T05:56:01.607Z,74.30
2023-06-19T05:57:01.686Z,74.30
2023-06-19T05:58:01.845Z,74.10
2023-06-19T05:59:01.805Z,74.01
2023-06-19T06:00:01.900Z,73.60
2023-06-19T06:01:01.999Z,73.50
2023-06-19T06:02:02.036Z,73.90
2023-06-19T06:03:02.152Z,73.16
2023-06-19T06:04:02.252Z,73.27
2023-06-19T06:05:02.307Z,73.36
2023-06-19T06:06:02.354Z,73.97
2023-06-19T06:07:02.493Z,73.67
2023-06-19T06:08:02.589Z,73.77
2023-06-19T06:09:02.654Z,73.97
2023-06-19T06:10:02.711Z,73.93
2023-06-19T06:11:02.852Z,73.77
2023-06-19T06:12:02.942Z,73.86
2023-06-19T06:13:02.984Z,74.47
2023-06-19T06:14:03.040Z,74.37
2023-06-19T06:15:03.120Z,74.71
2023-06-19T06:16:03.203Z,74.87
2023-06-19T06:17:03.309Z,74.97
2023-06-19T06:18:03.414Z,74.57
2023-06-19T06:19:03.454Z,74.37
2023-06-19T06:20:03.530Z,74.57
2023-06-19T06:21:03.585Z,74.47
2023-06-19T06:22:03.752Z,74.63
2023-06-19T06:23:03.809Z,73.93
2023-06-19T06:24:03.909Z,74.23
2023-06-19T06:25:03.959Z,74.23
2023-06-19T06:26:04.278Z,74.23
2023-06-19T06:27:04.073Z,74.03
2023-06-19T06:28:04.152Z,73.93
2023-06-19T06:29:04.217Z,74.13
2023-06-19T06:30:04.301Z,74.23
2023-06-19T06:31:04.404Z,74.93
2023-06-19T06:32:04.523Z,74.03
2023-06-19T06:33:04.705Z,74.63
2023-06-19T06:34:04.637Z,74.20
2023-06-19T06:35:04.697Z,73.80
2023-06-19T06:36:06.499Z,73.83
2023-06-19T06:37:06.885Z,74.10
2023-06-19T06:38:04.923Z,74.50
2023-06-19T06:39:04.998Z,73.10
2023-06-19T06:40:05.042Z,73.60
2023-06-19T06:41:05.125Z,72.89
2023-06-19T06:42:05.180Z,73.00
2023-06-19T06:43:06.222Z,73.00
2023-06-19T06:44:05.266Z,73.86
2023-06-19T06:45:05.370Z,73.10
2023-06-19T06:46:05.409Z,73.19
2023-06-19T06:47:05.502Z,74.00
2023-06-19T06:48:05.816Z,73.39
2023-06-19T06:49:05.623Z,73.10
2023-06-19T06:50:05.710Z,73.30
2023-06-19T06:51:05.793Z,74.10
2023-06-19T06:52:05.833Z,74.30
2023-06-19T06:53:05.949Z,73.10
2023-06-19T06:54:06.007Z,73.50
2023-06-19T06:55:06.067Z,73.36
2023-06-19T06:56:06.129Z,72.96
2023-06-19T06:57:06.192Z,73.16
2023-06-19T06:58:06.265Z,74.06
2023-06-19T06:59:06.938Z,73.16
2023-06-19T07:00:06.440Z,73.46
2023-06-19T07:01:06.576Z,73.16
2023-06-19T07:02:06.643Z,73.16
2023-06-19T07:03:06.718Z,72.66
2023-06-19T07:04:06.797Z,72.42
2023-06-19T07:05:06.896Z,72.42
2023-06-19T07:06:06.967Z,71.92
2023-06-19T07:07:07.018Z,72.72
2023-06-19T07:08:07.079Z,72.33
2023-06-19T07:09:07.156Z,72.33
2023-06-19T07:10:07.305Z,72.53
2023-06-19T07:11:07.342Z,71.92
2023-06-19T07:12:07.406Z,71.92
2023-06-19T07:13:07.573Z,71.29
2023-06-19T07:14:07.581Z,71.19
2023-06-19T07:15:07.637Z,71.39
2023-06-19T07:16:07.702Z,71.59
2023-06-19T07:17:07.884Z,71.16
2023-06-19T07:18:07.854Z,71.86
2023-06-19T07:19:07.916Z,70.32
2023-06-19T07:20:07.989Z,71.42
2023-06-19T07:21:08.138Z,69.89
2023-06-19T07:22:08.144Z,68.89
2023-06-19T07:23:08.284Z,68.70
2023-06-19T07:24:08.427Z,68.93
2023-06-19T07:25:08.389Z,68.73
2023-06-19T07:26:08.432Z,69.23
2023-06-19T07:27:08.570Z,69.89
2023-06-19T07:28:08.517Z,69.79
2023-06-19T07:29:08.711Z,68.89
2023-06-19T07:30:09.770Z,68.70
2023-06-19T07:31:08.783Z,69.20
2023-06-19T07:32:08.989Z,68.56
2023-06-19T07:33:08.990Z,67.90
2023-06-19T07:34:09.063Z,68.36
2023-06-19T07:35:09.100Z,67.99
2023-06-19T07:36:09.145Z,68.49
2023-06-19T07:37:09.216Z,68.79
2023-06-19T07:38:09.288Z,68.36
2023-06-19T07:39:09.330Z,68.56
2023-06-19T07:40:09.390Z,67.86
2023-06-19T07:41:09.435Z,67.46
2023-06-19T07:42:09.526Z,68.86
2023-06-19T07:43:09.635Z,67.63
2023-06-19T07:44:09.649Z,66.73
2023-06-19T07:45:09.684Z,66.40
2023-06-19T07:46:09.820Z,66.60
2023-06-19T07:47:09.849Z,67.27
2023-06-19T07:48:09.983Z,65.44
2023-06-19T07:49:09.990Z,65.44
2023-06-19T07:50:10.091Z,65.54
2023-06-19T07:51:10.121Z,64.34
2023-06-19T07:52:17.142Z,64.45
2023-06-19T07:53:10.179Z,67.30
2023-06-19T07:54:12.923Z,64.51
2023-06-19T07:55:12.968Z,64.91
2023-06-19T07:56:10.346Z,64.12
2023-06-19T07:57:10.366Z,64.72
2023-06-19T07:58:10.511Z,64.81
2023-06-19T07:59:10.505Z,64.51
2023-06-19T08:00:10.536Z,64.42
2023-06-19T08:01:10.576Z,64.51
2023-06-19T08:02:10.676Z,63.72
2023-06-19T08:03:10.838Z,64.12
2023-06-19T08:04:10.778Z,64.12
2023-06-19T08:05:10.931Z,64.58
2023-06-19T08:06:10.855Z,63.89
2023-06-19T08:07:10.906Z,63.46
2023-06-19T08:08:10.948Z,63.06
2023-06-19T08:09:10.988Z,62.46
2023-06-19T08:10:28.032Z,62.76
2023-06-19T08:11:12.033Z,62.59
2023-06-19T08:12:11.069Z,63.89
2023-06-19T08:13:11.178Z,63.59
2023-06-19T08:14:11.214Z,63.98
2023-06-19T08:15:11.244Z,64.39
2023-06-19T08:16:11.273Z,64.58
2023-06-19T08:17:11.416Z,63.46
2023-06-19T08:18:11.380Z,65.05
2023-06-19T08:19:11.421Z,63.59
2023-06-19T08:20:11.446Z,63.19
2023-06-19T08:21:11.483Z,64.22
2023-06-19T08:22:11.523Z,64.78
2023-06-19T08:23:11.567Z,64.48
2023-06-19T08:24:11.642Z,63.79
2023-06-19T08:25:11.701Z,63.49
2023-06-19T08:26:11.737Z,63.79
2023-06-19T08:27:11.806Z,64.58
2023-06-19T08:28:11.857Z,63.98
2023-06-19T08:29:11.894Z,64.09
2023-06-19T08:30:11.920Z,64.39
2023-06-19T08:31:11.960Z,64.39
2023-06-19T08:32:11.985Z,63.89
2023-06-19T08:33:12.097Z,63.72
2023-06-19T08:34:12.072Z,64.58
2023-06-19T08:35:12.117Z,64.58
2023-06-19T08:36:12.152Z,65.28
2023-06-19T08:37:12.196Z,65.18
2023-06-19T08:38:12.251Z,63.59
2023-06-19T08:39:12.297Z,65.18
2023-06-19T08:40:12.411Z,63.39
2023-06-19T08:41:12.458Z,64.69
2023-06-19T08:42:12.505Z,64.88
2023-06-19T08:43:12.570Z,64.09
2023-06-19T08:44:12.588Z,64.15
2023-06-19T08:45:12.639Z,63.85
2023-06-19T08:46:12.756Z,63.76
2023-06-19T08:47:12.782Z,63.76
2023-06-19T08:48:12.813Z,63.82
2023-06-19T08:49:12.843Z,63.73
2023-06-19T08:50:12.877Z,63.20
2023-06-19T08:51:12.924Z,63.30
2023-06-19T08:52:12.940Z,62.80
2023-06-19T08:53:12.997Z,62.10
2023-06-19T08:54:13.066Z,62.87
2023-06-19T08:55:13.110Z,62.87
2023-06-19T08:56:13.116Z,62.37
2023-06-19T08:57:13.492Z,62.74
2023-06-19T08:58:13.224Z,61.85
2023-06-19T08:59:13.265Z,61.85
2023-06-19T09:00:13.284Z,61.12
2023-06-19T09:01:13.324Z,60.43
2023-06-19T09:02:13.419Z,61.12
2023-06-19T09:03:14.959Z,61.69
2023-06-19T09:04:13.608Z,59.91
2023-06-19T09:05:13.550Z,59.97
2023-06-19T09:06:13.603Z,59.67
2023-06-19T09:07:13.791Z,60.80
2023-06-19T09:08:13.704Z,59.70
2023-06-19T09:09:13.721Z,60.36
2023-06-19T09:10:13.761Z,61.35
2023-06-19T09:11:13.782Z,61.94
2023-06-19T09:12:13.791Z,61.65
2023-06-19T09:13:13.821Z,61.58
2023-06-19T09:14:13.937Z,62.07
2023-06-19T09:15:13.969Z,61.68
2023-06-19T09:16:14.009Z,62.07
2023-06-19T09:17:14.064Z,62.90
2023-06-19T09:18:14.111Z,62.50
2023-06-19T09:19:14.158Z,63.37
2023-06-19T09:20:14.183Z,62.60
2023-06-19T09:21:14.210Z,62.50
2023-06-19T09:22:14.268Z,62.01
2023-06-19T09:23:14.337Z,63.70
2023-06-19T09:24:14.565Z,63.00
2023-06-19T09:25:14.502Z,64.19
2023-06-19T09:26:14.533Z,63.20
2023-06-19T09:27:14.570Z,63.89
2023-06-19T09:28:14.673Z,64.06
2023-06-19T09:29:15.846Z,63.37
2023-06-19T09:30:14.734Z,63.17
2023-06-19T09:31:14.791Z,62.67
2023-06-19T09:32:14.795Z,63.40
2023-06-19T09:33:14.895Z,63.89
2023-06-19T09:34:14.844Z,63.00
2023-06-19T09:35:14.888Z,64.00
2023-06-19T09:36:14.916Z,64.39
2023-06-19T09:37:14.960Z,64.00
2023-06-19T09:38:15.017Z,63.27
2023-06-19T09:39:15.040Z,63.49
2023-06-19T09:40:15.075Z,63.96
2023-06-19T09:41:15.109Z,63.30
2023-06-19T09:42:15.137Z,63.30
2023-06-19T09:43:15.170Z,64.98
2023-06-19T09:44:15.195Z,64.29
2023-06-19T09:45:15.233Z,63.76
2023-06-19T09:46:15.261Z,63.67
2023-06-19T09:47:15.372Z,64.23
2023-06-19T09:48:15.365Z,62.94
2023-06-19T09:49:15.416Z,62.54
2023-06-19T09:50:15.432Z,61.88
2023-06-19T09:51:15.440Z,62.18
2023-06-19T09:52:15.458Z,63.46
2023-06-19T09:53:15.499Z,61.68
2023-06-19T09:54:15.551Z,61.68
2023-06-19T09:55:15.588Z,61.88
2023-06-19T09:56:15.608Z,62.27
2023-06-19T09:57:15.646Z,62.47
2023-06-19T09:58:15.699Z,61.88
2023-06-19T09:59:15.731Z,61.68
2023-06-19T10:00:15.769Z,62.18
2023-06-19T10:01:15.789Z,61.98
2023-06-19T10:02:15.861Z,61.48
2023-06-19T10:03:16.031Z,61.88
2023-06-19T10:04:15.985Z,61.68
2023-06-19T10:05:16.218Z,62.45
2023-06-19T10:06:16.126Z,62.45
2023-06-19T10:07:16.173Z,62.05
2023-06-19T10:08:16.223Z,62.61
2023-06-19T10:09:16.261Z,62.51
2023-06-19T10:10:16.275Z,62.51
2023-06-19T10:11:16.312Z,63.51
2023-06-19T10:12:16.347Z,62.21
2023-06-19T10:13:16.393Z,62.02
2023-06-19T10:14:16.410Z,61.62
2023-06-19T10:15:16.443Z,60.83
2023-06-19T10:16:16.515Z,61.82
2023-06-19T10:17:16.525Z,61.10
2023-06-19T10:18:16.539Z,61.79
2023-06-19T10:19:16.615Z,60.30
2023-06-19T10:20:16.599Z,60.60
2023-06-19T10:21:16.637Z,61.89
2023-06-19T10:22:16.657Z,60.17
2023-06-19T10:23:16.705Z,61.26
2023-06-19T10:24:16.769Z,61.36
2023-06-19T10:25:16.764Z,60.96
2023-06-19T10:26:16.774Z,59.78
2023-06-19T10:27:16.817Z,61.16
2023-06-19T10:28:16.848Z,59.97
2023-06-19T10:29:16.877Z,59.58
2023-06-19T10:30:16.997Z,60.37
2023-06-19T10:31:16.931Z,60.37
2023-06-19T10:32:16.957Z,59.28
2023-06-19T10:33:16.997Z,60.77
2023-06-19T10:34:17.023Z,62.52
2023-06-19T10:35:17.056Z,60.24
2023-06-19T10:36:17.139Z,62.95
2023-06-19T10:37:17.175Z,66.61
2023-06-19T10:38:17.200Z,65.62
2023-06-19T10:39:17.236Z,64.04
2023-06-19T10:40:17.282Z,64.23
2023-06-19T10:41:17.298Z,64.47
2023-06-19T10:42:17.325Z,63.15
2023-06-19T10:43:17.342Z,63.64
2023-06-19T10:44:17.376Z,61.26
2023-06-19T10:45:17.392Z,60.77
2023-06-19T10:46:17.486Z,62.12
2023-06-19T10:47:17.534Z,60.44
2023-06-19T10:48:17.560Z,60.61
2023-06-19T10:49:17.563Z,60.31
2023-06-19T10:50:17.655Z,59.42
2023-06-19T10:51:17.638Z,58.83
2023-06-19T10:52:17.641Z,59.22
2023-06-19T10:53:17.681Z,59.42
2023-06-19T10:54:17.674Z,58.73
2023-06-19T10:55:17.693Z,58.92
2023-06-19T10:56:17.711Z,58.30
2023-06-19T10:57:17.717Z,58.70
2023-06-19T10:58:17.748Z,59.00
2023-06-19T10:59:17.744Z,57.61
2023-06-19T11:00:17.764Z,57.84
2023-06-19T11:01:17.759Z,58.13
2023-06-19T11:02:17.825Z,56.65
2023-06-19T11:03:17.945Z,57.93
2023-06-19T11:04:17.863Z,56.95
2023-06-19T11:05:17.865Z,56.87
2023-06-19T11:06:17.882Z,57.46
2023-06-19T11:07:17.872Z,56.87
2023-06-19T11:08:17.894Z,57.79
2023-06-19T11:09:17.909Z,57.69
2023-06-19T11:10:17.933Z,57.69
2023-06-19T11:11:17.924Z,58.22
2023-06-19T11:12:17.948Z,58.91
2023-06-19T11:13:18.004Z,57.79
2023-06-19T11:14:18.247Z,57.92
2023-06-19T11:15:18.080Z,58.39
2023-06-19T11:16:18.118Z,57.89
2023-06-19T11:17:18.140Z,58.09
2023-06-19T11:18:18.187Z,57.67
2023-06-19T11:19:18.214Z,57.57
2023-06-19T11:20:18.262Z,57.67
2023-06-19T11:21:18.285Z,57.89
2023-06-19T11:22:18.334Z,57.10
2023-06-19T11:23:18.420Z,57.37
2023-06-19T11:24:18.542Z,57.79
2023-06-19T11:25:18.452Z,58.39
2023-06-19T11:26:18.476Z,58.59
2023-06-19T11:27:18.479Z,58.39
2023-06-19T11:28:18.523Z,58.59
2023-06-19T11:29:18.542Z,59.15
2023-06-19T11:30:18.585Z,58.46
2023-06-19T11:31:18.665Z,58.06
2023-06-19T11:32:18.690Z,58.75
2023-06-19T11:33:18.743Z,57.74
2023-06-19T11:34:19.643Z,58.83
2023-06-19T11:35:18.850Z,58.23
2023-06-19T11:36:18.863Z,58.13
2023-06-19T11:37:18.903Z,57.93
2023-06-19T11:38:18.931Z,58.06
2023-06-19T11:39:19.136Z,58.13
2023-06-19T11:40:18.984Z,57.74
2023-06-19T11:41:18.993Z,57.31
2023-06-19T11:42:19.020Z,57.29
2023-06-19T11:43:19.045Z,56.67
2023-06-19T11:44:19.062Z,55.58
2023-06-19T11:45:19.076Z,55.97
2023-06-19T11:46:19.172Z,55.58
2023-06-19T11:47:19.144Z,55.65
2023-06-19T11:48:19.189Z,54.53
2023-06-19T11:49:19.249Z,53.25
2023-06-19T11:50:19.281Z,54.04
2023-06-19T11:51:19.309Z,53.22
2023-06-19T11:52:19.306Z,53.00
2023-06-19T11:53:19.320Z,52.39
2023-06-19T11:54:19.331Z,52.56
2023-06-19T11:55:19.319Z,52.68
2023-06-19T11:56:19.319Z,52.61
2023-06-19T11:57:19.324Z,51.94
2023-06-19T11:58:19.354Z,52.53
2023-06-19T11:59:19.351Z,52.76
2023-06-19T12:00:19.339Z,52.29
2023-06-19T12:01:19.333Z,52.98
2023-06-19T12:02:19.474Z,52.78
2023-06-19T12:03:19.591Z,52.39
2023-06-19T12:04:19.687Z,54.04
2023-06-19T12:05:19.453Z,52.76
2023-06-19T12:06:19.438Z,52.46
2023-06-19T12:07:19.437Z,53.03
2023-06-19T12:08:19.445Z,52.21
2023-06-19T12:09:19.453Z,52.41
2023-06-19T12:10:19.467Z,50.21
2023-06-19T12:11:19.472Z,51.00
2023-06-19T12:12:19.485Z,50.41
2023-06-19T12:13:19.496Z,50.51
2023-06-19T12:14:19.495Z,50.81
2023-06-19T12:15:19.490Z,50.54
2023-06-19T12:16:19.585Z,51.92
2023-06-19T12:17:19.526Z,51.50
2023-06-19T12:18:19.551Z,50.90
2023-06-19T12:19:21.147Z,51.18
2023-06-19T12:20:19.576Z,50.78
2023-06-19T12:21:34.108Z,50.07
2023-06-19T12:22:20.536Z,49.95
2023-06-19T12:23:19.533Z,49.68
2023-06-19T12:24:19.575Z,47.71
2023-06-19T12:25:19.511Z,48.69
2023-06-19T12:26:19.486Z,48.49
2023-06-19T12:27:19.451Z,48.59
2023-06-19T12:28:19.469Z,47.39
2023-06-19T12:29:19.462Z,47.56
2023-06-19T12:30:19.463Z,47.61
2023-06-19T12:31:19.507Z,48.18
2023-06-19T12:32:19.406Z,46.93
2023-06-19T12:33:19.407Z,46.41
2023-06-19T12:34:30.364Z,46.30
2023-06-19T12:35:20.356Z,45.78
2023-06-19T12:36:19.360Z,45.47
2023-06-19T12:37:19.337Z,45.66
2023-06-19T12:38:19.330Z,45.47
2023-06-19T12:39:19.330Z,45.17
2023-06-19T12:40:19.297Z,45.44
2023-06-19T12:41:19.270Z,44.09
2023-06-19T12:42:19.256Z,43.72
2023-06-19T12:43:19.228Z,45.41
2023-06-19T12:44:19.593Z,44.53
2023-06-19T12:45:19.251Z,44.87
2023-06-19T12:46:19.270Z,44.98
2023-06-19T12:47:19.294Z,45.75
2023-06-19T12:48:19.210Z,45.97
2023-06-19T12:49:19.200Z,44.69
2023-06-19T12:50:19.201Z,45.20
2023-06-19T12:51:19.189Z,45.79
2023-06-19T12:52:19.183Z,45.50
2023-06-19T12:53:19.191Z,45.28